Time;durP1;ratioP1;P1;durP2;ratioP2;P2;SDS_P1;SDS_P2;PMS_P1;PMS_P2;Temp;Humidity;BMP_temperature;BMP_pressure;BME280_temperature;BME280_humidity;BME280_pressure;Samples;Min_cycle;Max_cycle;Signal;HPM_P1;HPM_P2
2023/03/23 00:02:23;;;;;;;51.37;41.37;;;;;;;8.33;70.99;94892.78;4999213;28;20221;-69
2023/03/23 00:04:49;;;;;;;52.03;37.90;;;;;;;8.32;70.76;94878.88;4966029;28;20224;-67
2023/03/23 00:07:20;;;;;;;49.83;39.53;;;;;;;8.27;70.79;94890.75;4967395;28;20220;-68
2023/03/23 00:09:47;;;;;;;52.20;38.57;;;;;;;8.34;70.44;94879.56;4968116;28;20193;-68
2023/03/23 00:12:15;;;;;;;57.60;41.07;;;;;;;8.27;70.61;94888.13;4995633;28;20199;-66
2023/03/23 00:14:41;;;;;;;69.27;41.00;;;;;;;8.12;71.29;94888.53;4962311;28;20227;-66
2023/03/23 00:17:10;;;;;;;79.43;42.83;;;;;;;8.12;71.33;94896.41;4970337;28;20714;-63
2023/03/23 00:19:48;;;;;;;78.40;42.10;;;;;;;8.05;71.58;94895.31;4969781;28;20220;-69
2023/03/23 00:22:15;;;;;;;86.07;39.07;;;;;;;8.08;71.46;94899.44;4966441;28;20224;-64
2023/03/23 00:24:41;;;;;;;85.83;38.73;;;;;;;7.90;72.00;94892.28;4966059;28;20323;-65
2023/03/23 00:27:08;;;;;;;78.43;37.43;;;;;;;7.90;72.03;94894.91;4969010;28;20227;-64
2023/03/23 00:29:34;;;;;;;66.60;38.70;;;;;;;7.80;72.60;94901.91;4947763;28;20307;-66
2023/03/23 00:32:01;;;;;;;77.33;38.57;;;;;;;7.90;71.84;94901.94;4958077;28;20339;-65
2023/03/23 00:34:33;;;;;;;58.40;38.37;;;;;;;8.01;71.25;94912.25;4968327;28;20224;-69
2023/03/23 00:36:59;;;;;;;40.77;34.10;;;;;;;7.90;70.72;94909.78;4966830;28;20203;-68
2023/03/23 00:39:26;;;;;;;39.17;34.70;;;;;;;7.81;70.99;94905.38;4970751;28;20189;-71
2023/03/23 00:41:54;;;;;;;37.77;32.67;;;;;;;7.78;70.59;94911.72;4966487;28;20307;-66
2023/03/23 00:44:23;;;;;;;37.40;32.57;;;;;;;7.76;70.71;94920.69;4964817;28;20275;-69
2023/03/23 00:46:49;;;;;;;33.80;30.17;;;;;;;7.61;70.93;94913.22;4968631;28;20223;-63
2023/03/23 00:49:24;;;;;;;33.57;30.07;;;;;;;7.66;70.41;94915.41;4969407;28;20243;-63
2023/03/23 00:51:51;;;;;;;32.27;28.40;;;;;;;7.71;70.38;94915.84;4968027;28;20219;-67
2023/03/23 00:54:16;;;;;;;31.67;28.30;;;;;;;7.67;70.48;94922.31;4968312;28;20211;-64
2023/03/23 00:56:41;;;;;;;28.80;25.80;;;;;;;7.72;69.95;94922.72;4997226;28;20239;-65
2023/03/23 00:59:08;;;;;;;27.70;24.80;;;;;;;7.72;70.17;94918.34;4967059;28;20237;-63
2023/03/23 01:01:35;;;;;;;27.80;25.00;;;;;;;7.80;69.71;94925.47;4993781;28;20232;-67
2023/03/23 01:04:03;;;;;;;28.87;25.83;;;;;;;7.82;69.27;94927.97;4964186;28;20227;-68
2023/03/23 01:06:31;;;;;;;27.67;24.97;;;;;;;7.84;69.03;94928.66;4968199;28;20695;-64
2023/03/23 01:08:58;;;;;;;28.17;25.27;;;;;;;7.74;69.98;94924.25;4963492;28;20268;-68
2023/03/23 01:11:24;;;;;;;28.90;26.10;;;;;;;7.82;69.69;94922.75;4969338;28;20230;-68
2023/03/23 01:13:50;;;;;;;29.13;26.13;;;;;;;7.75;70.48;94925.06;4966460;28;20224;-68
2023/03/23 01:16:16;;;;;;;28.17;25.43;;;;;;;7.81;70.29;94926.34;4963729;28;20643;-68
2023/03/23 01:18:41;;;;;;;28.03;25.13;;;;;;;7.94;69.69;94919.84;4967251;28;20283;-66
2023/03/23 01:21:13;;;;;;;28.80;25.83;;;;;;;7.91;69.69;94921.91;4968067;28;20220;-69
2023/03/23 01:23:39;;;;;;;28.57;25.67;;;;;;;7.89;69.79;94905.53;4981348;28;20220;-66
2023/03/23 01:26:07;;;;;;;25.47;22.77;;;;;;;7.99;69.54;94908.94;4995319;28;20228;-67
2023/03/23 01:28:33;;;;;;;26.17;23.57;;;;;;;8.07;68.70;94900.41;4995645;28;20725;-63
2023/03/23 01:31:01;;;;;;;26.90;24.27;;;;;;;8.15;68.76;94897.91;4962159;28;20278;-63
2023/03/23 01:33:26;;;;;;;27.47;24.57;;;;;;;8.11;68.90;94904.41;4961579;28;20193;-63
2023/03/23 01:35:51;;;;;;;29.57;26.53;;;;;;;7.94;69.46;94906.75;4993062;28;20319;-68
2023/03/23 01:38:17;;;;;;;29.63;26.47;;;;;;;8.02;69.45;94889.50;4967811;28;20231;-67
2023/03/23 01:40:43;;;;;;;32.43;28.93;;;;;;;8.16;69.16;94894.34;4967428;28;20346;-63
2023/03/23 01:43:14;;;;;;;33.23;29.20;;;;;;;8.24;69.34;94891.03;4965314;28;20283;-64
2023/03/23 01:45:40;;;;;;;35.63;29.90;;;;;;;8.16;69.55;94889.09;4970410;28;20195;-63
2023/03/23 01:48:27;;;;;;;34.03;30.47;;;;;;;8.15;69.85;94890.91;4965468;28;20291;-69
2023/03/23 01:51:17;;;;;;;34.67;30.93;;;;;;;8.15;69.92;94887.44;4968737;28;20249;-65
2023/03/23 01:53:50;;;;;;;33.90;30.30;;;;;;;8.09;69.98;94888.00;4946784;28;20225;-65
2023/03/23 01:56:24;;;;;;;34.47;30.73;;;;;;;7.98;70.55;94882.91;4962608;28;20275;-67
2023/03/23 01:58:52;;;;;;;33.57;29.97;;;;;;;7.99;70.29;94881.94;4958475;28;20253;-63
2023/03/23 02:01:18;;;;;;;35.67;31.93;;;;;;;7.77;71.33;94883.06;4960170;28;20220;-68
2023/03/23 02:03:47;;;;;;;35.30;31.43;;;;;;;7.93;70.85;94884.16;4948723;28;20200;-63
2023/03/23 02:06:13;;;;;;;33.27;29.87;;;;;;;7.97;71.14;94883.91;4943205;28;20275;-68
2023/03/23 02:08:43;;;;;;;32.17;28.73;;;;;;;7.86;71.10;94887.47;4949570;28;20224;-65
2023/03/23 02:11:14;;;;;;;32.60;29.10;;;;;;;7.99;70.26;94882.75;4951172;28;20223;-64
2023/03/23 02:13:40;;;;;;;31.03;27.77;;;;;;;8.05;70.09;94881.41;4948214;28;20309;-66
2023/03/23 02:16:24;;;;;;;29.40;26.40;;;;;;;7.87;70.40;94882.09;4959592;28;20245;-66
2023/03/23 02:18:53;;;;;;;28.03;25.07;;;;;;;7.93;70.00;94883.31;4944792;28;20236;-67
2023/03/23 02:21:50;;;;;;;27.37;24.50;;;;;;;8.02;69.54;94881.66;4949120;28;20196;-64
2023/03/23 02:24:21;;;;;;;27.23;24.43;;;;;;;7.98;69.56;94885.53;4963604;28;20638;-66
2023/03/23 02:26:55;;;;;;;24.43;21.83;;;;;;;7.98;69.86;94885.53;4962767;28;20225;-69
2023/03/23 02:29:52;;;;;;;25.53;22.93;;;;;;;7.86;69.54;94887.47;4961078;28;20228;-65
2023/03/23 02:32:27;;;;;;;25.60;22.77;;;;;;;7.95;69.20;94886.63;5001176;28;20230;-68
2023/03/23 02:35:18;;;;;;;26.40;23.80;;;;;;;7.59;69.64;94886.38;4967931;28;20235;-65
2023/03/23 02:37:51;;;;;;;24.90;22.50;;;;;;;7.89;69.19;94885.41;5002516;28;20338;-65
2023/03/23 02:40:24;;;;;;;25.47;21.90;;;;;;;7.89;69.12;94887.19;4972667;28;20228;-67
2023/03/23 02:42:54;;;;;;;28.33;25.33;;;;;;;7.80;69.45;94877.53;4982967;28;20253;-70
2023/03/23 02:45:22;;;;;;;25.43;22.80;;;;;;;7.72;69.66;94888.69;4969268;28;20203;-65
2023/03/23 02:47:51;;;;;;;25.57;23.03;;;;;;;7.81;68.74;94890.50;4965426;28;20272;-66
2023/03/23 02:50:19;;;;;;;25.83;23.23;;;;;;;7.74;69.11;94907.72;4970753;28;20241;-68
2023/03/23 02:52:48;;;;;;;25.40;22.83;;;;;;;7.76;69.25;94902.34;4959233;28;20268;-68
2023/03/23 02:55:15;;;;;;;25.07;22.67;;;;;;;7.72;69.28;94901.78;4998063;28;20239;-68
2023/03/23 02:57:43;;;;;;;25.93;23.53;;;;;;;7.70;69.11;94909.78;4967071;28;20189;-67
2023/03/23 03:00:13;;;;;;;28.93;26.00;;;;;;;7.66;69.26;94916.25;4969402;28;20220;-65
2023/03/23 03:02:47;;;;;;;26.10;23.50;;;;;;;7.70;69.56;94919.44;4967858;28;20287;-69
2023/03/23 03:05:15;;;;;;;35.83;28.53;;;;;;;7.71;69.49;94924.53;4996623;28;20220;-64
2023/03/23 03:07:52;;;;;;;34.63;30.97;;;;;;;7.65;70.08;94927.69;4999099;28;20243;-68
2023/03/23 03:10:49;;;;;;;39.90;32.87;;;;;;;7.65;69.93;94937.34;4965764;28;20235;-66
2023/03/23 03:13:27;;;;;;;42.37;35.77;;;;;;;7.67;69.84;94938.84;4968204;28;20228;-66
2023/03/23 03:15:55;;;;;;;48.97;41.00;;;;;;;7.62;69.67;94946.28;5000492;28;20215;-63
2023/03/23 03:18:27;;;;;;;53.70;40.67;;;;;;;7.51;70.20;94943.75;4999424;28;20192;-67
2023/03/23 03:21:03;;;;;;;50.87;40.73;;;;;;;7.55;70.24;94942.53;4995507;28;20223;-67
2023/03/23 03:23:32;;;;;;;49.77;41.57;;;;;;;7.59;70.06;94948.31;5001662;28;20554;-63
2023/03/23 03:25:59;;;;;;;48.70;40.50;;;;;;;7.50;70.27;94939.50;4965070;28;20240;-67
2023/03/23 03:28:26;;;;;;;54.90;41.60;;;;;;;7.48;70.74;94944.03;4999785;28;20286;-63
2023/03/23 03:31:00;;;;;;;51.47;40.83;;;;;;;7.45;70.42;94939.06;4982206;28;20203;-66
2023/03/23 03:33:30;;;;;;;52.80;42.13;;;;;;;7.53;70.24;94933.16;4965338;28;20192;-66
2023/03/23 03:35:58;;;;;;;48.03;40.13;;;;;;;7.53;70.41;94941.03;4966923;28;20232;-66
2023/03/23 03:38:25;;;;;;;52.27;41.63;;;;;;;7.43;70.69;94941.84;4975930;28;20544;-67
2023/03/23 03:40:51;;;;;;;53.47;41.83;;;;;;;7.42;70.64;94942.78;4970482;28;20223;-69
2023/03/23 03:43:17;;;;;;;53.27;41.27;;;;;;;7.50;70.27;94945.56;5002182;28;20216;-63
2023/03/23 03:45:44;;;;;;;51.50;40.83;;;;;;;7.58;69.89;94938.84;4971385;28;20250;-69
2023/03/23 03:48:09;;;;;;;48.67;38.77;;;;;;;7.53;70.08;94943.63;4980443;28;20228;-69
2023/03/23 03:50:35;;;;;;;46.77;38.93;;;;;;;7.45;70.57;94941.69;4963495;28;20247;-70
2023/03/23 03:53:01;;;;;;;44.37;37.47;;;;;;;7.41;70.84;94940.31;4971162;28;20247;-69
2023/03/23 03:55:27;;;;;;;45.63;38.30;;;;;;;7.41;70.95;94935.91;4969259;28;20236;-68
2023/03/23 03:57:54;;;;;;;42.10;35.97;;;;;;;7.42;70.82;94937.56;4979963;28;20193;-66
2023/03/23 04:00:20;;;;;;;42.67;37.67;;;;;;;7.44;70.12;94927.78;4968931;28;20204;-69
2023/03/23 04:02:54;;;;;;;44.17;37.83;;;;;;;7.49;70.15;94938.69;4968077;28;20254;-70
2023/03/23 04:05:23;;;;;;;43.17;37.27;;;;;;;7.49;70.37;94930.84;4966430;28;20242;-68
2023/03/23 04:07:51;;;;;;;43.60;36.53;;;;;;;7.45;70.37;94939.06;4970779;28;20228;-69
2023/03/23 04:10:21;;;;;;;45.00;35.40;;;;;;;7.28;71.19;94930.91;4965201;28;20311;-65
2023/03/23 04:12:47;;;;;;;42.77;36.87;;;;;;;7.18;71.36;94929.22;4969947;28;20200;-63
2023/03/23 04:15:12;;;;;;;41.87;36.63;;;;;;;7.25;71.94;94919.91;4965214;28;20227;-67
2023/03/23 04:17:40;;;;;;;44.47;37.67;;;;;;;7.21;71.77;94921.13;4967180;28;20220;-63
2023/03/23 04:20:12;;;;;;;40.70;35.97;;;;;;;7.32;71.07;94926.25;4967289;28;20283;-67
2023/03/23 04:22:38;;;;;;;41.27;35.80;;;;;;;7.37;70.83;94929.28;4980491;28;20224;-68
2023/03/23 04:25:06;;;;;;;40.90;36.43;;;;;;;7.40;70.83;94929.00;4961764;28;20243;-66
2023/03/23 04:27:32;;;;;;;42.43;35.33;;;;;;;7.42;70.91;94932.31;4970163;28;20188;-66
2023/03/23 04:29:58;;;;;;;42.10;35.40;;;;;;;7.50;70.42;94932.47;4968872;28;20220;-66
2023/03/23 04:32:28;;;;;;;40.37;34.90;;;;;;;7.50;70.18;94940.31;4961466;28;20221;-68
2023/03/23 04:35:00;;;;;;;39.60;33.93;;;;;;;7.45;70.39;94937.28;4964157;28;20229;-67
2023/03/23 04:37:29;;;;;;;37.57;33.43;;;;;;;7.41;70.20;94933.28;4966744;28;20319;-68
2023/03/23 04:40:09;;;;;;;48.13;34.83;;;;;;;7.31;71.19;94932.44;4968223;28;20888;-65
2023/03/23 04:42:34;;;;;;;40.77;32.03;;;;;;;7.33;71.09;94938.38;4967466;28;20250;-66
2023/03/23 04:45:02;;;;;;;38.60;34.40;;;;;;;7.19;71.12;94936.09;4968103;28;20253;-65
2023/03/23 04:47:29;;;;;;;38.60;34.47;;;;;;;7.17;71.48;94935.44;4966376;28;20315;-65
2023/03/23 04:49:56;;;;;;;39.67;34.17;;;;;;;6.99;71.66;94933.44;4968001;28;20446;-68
2023/03/23 04:52:21;;;;;;;36.53;32.47;;;;;;;7.06;71.47;94942.41;4969668;28;20239;-69
2023/03/23 04:54:47;;;;;;;35.93;30.87;;;;;;;7.32;70.34;94941.09;4965790;28;20192;-69
2023/03/23 04:57:15;;;;;;;39.50;33.63;;;;;;;7.05;71.70;94951.19;4972082;28;20196;-64
2023/03/23 04:59:40;;;;;;;37.00;31.43;;;;;;;7.12;72.08;94954.13;4975117;28;20220;-63
2023/03/23 05:02:06;;;;;;;36.97;31.73;;;;;;;7.23;71.46;94955.81;4969108;28;20230;-70
2023/03/23 05:04:33;;;;;;;37.17;31.57;;;;;;;7.34;70.81;94955.72;4967601;28;20220;-66
2023/03/23 05:06:58;;;;;;;37.67;32.27;;;;;;;7.44;70.78;94951.34;4966655;28;20189;-69
2023/03/23 05:09:24;;;;;;;40.20;33.50;;;;;;;7.38;70.13;94956.28;4969536;28;20195;-63
2023/03/23 05:11:49;;;;;;;38.10;31.27;;;;;;;7.64;70.70;94961.84;4971171;28;20227;-67
2023/03/23 05:14:15;;;;;;;37.13;31.13;;;;;;;7.33;70.49;94956.69;4972990;28;20228;-66
2023/03/23 05:16:40;;;;;;;33.97;30.37;;;;;;;7.16;71.27;94959.91;4969881;28;20224;-67
2023/03/23 05:19:07;;;;;;;31.23;28.03;;;;;;;7.10;72.03;94963.88;4960790;28;20224;-71
2023/03/23 05:21:32;;;;;;;30.73;27.33;;;;;;;6.94;72.95;94961.75;4969254;28;20283;-69
2023/03/23 05:24:00;;;;;;;27.73;24.83;;;;;;;6.78;72.75;94957.00;4969839;28;20288;-66
2023/03/23 05:26:28;;;;;;;30.17;26.47;;;;;;;7.13;72.29;94968.84;4968387;28;20216;-65
2023/03/23 05:28:57;;;;;;;29.47;26.07;;;;;;;7.24;71.25;94970.53;4968866;28;20220;-67
2023/03/23 05:31:24;;;;;;;27.37;24.73;;;;;;;7.29;71.21;94970.97;4961325;28;20236;-68
2023/03/23 05:33:50;;;;;;;26.10;23.33;;;;;;;7.41;71.04;94980.38;4968007;28;20199;-66
2023/03/23 05:36:16;;;;;;;26.40;22.30;;;;;;;7.51;70.83;94968.16;4960618;28;20279;-68
2023/03/23 05:38:45;;;;;;;26.97;21.53;;;;;;;7.46;70.71;94980.00;4970659;28;20302;-69
2023/03/23 05:41:14;;;;;;;24.93;22.53;;;;;;;7.60;70.22;94976.16;4967699;28;20777;-68
2023/03/23 05:43:39;;;;;;;23.33;20.93;;;;;;;7.65;70.30;94987.88;4965967;28;20247;-66
2023/03/23 05:46:05;;;;;;;23.77;21.30;;;;;;;7.74;70.11;94986.25;4967467;28;20669;-65
2023/03/23 05:48:31;;;;;;;23.53;20.93;;;;;;;7.72;70.34;94983.78;4970537;28;20199;-70
2023/03/23 05:50:56;;;;;;;23.40;20.93;;;;;;;7.82;70.00;94993.41;4962469;28;20236;-66
2023/03/23 05:53:23;;;;;;;22.03;18.70;;;;;;;7.84;69.33;94994.13;4964095;28;20236;-63
2023/03/23 05:55:48;;;;;;;21.37;19.17;;;;;;;7.94;68.88;94989.72;4969562;28;20235;-69
2023/03/23 05:58:14;;;;;;;22.77;19.97;;;;;;;8.03;68.50;94994.13;4973122;28;20307;-64
2023/03/23 06:00:40;;;;;;;22.13;19.97;;;;;;;8.03;68.67;94995.94;4974934;28;20219;-68
2023/03/23 06:03:05;;;;;;;22.57;20.17;;;;;;;7.92;68.77;94995.09;5002032;28;20228;-63
2023/03/23 06:05:32;;;;;;;21.80;19.07;;;;;;;8.00;68.87;94998.81;4967269;28;20230;-65
2023/03/23 06:07:58;;;;;;;21.43;18.93;;;;;;;8.17;68.41;94998.13;4963060;28;20477;-68
2023/03/23 06:10:24;;;;;;;25.47;18.53;;;;;;;8.22;67.84;94997.72;4971745;28;20227;-69
2023/03/23 06:12:51;;;;;;;21.93;18.50;;;;;;;8.26;67.48;95010.41;4970923;28;20204;-68
2023/03/23 06:15:16;;;;;;;20.20;18.10;;;;;;;8.21;67.95;95006.56;4970846;28;20220;-63
2023/03/23 06:17:42;;;;;;;20.60;18.07;;;;;;;8.12;68.39;95005.56;4955781;28;20220;-69
2023/03/23 06:20:09;;;;;;;21.17;19.17;;;;;;;7.88;69.44;95009.41;4973228;28;20260;-65
2023/03/23 06:22:38;;;;;;;26.73;19.87;;;;;;;7.68;70.69;95007.72;4972859;28;20300;-67
2023/03/23 06:25:05;;;;;;;20.33;18.33;;;;;;;7.82;70.54;95009.94;4980288;28;20242;-64
2023/03/23 06:27:30;;;;;;;20.60;18.53;;;;;;;7.95;70.02;95007.91;4974661;28;20276;-67
2023/03/23 06:29:56;;;;;;;21.10;18.87;;;;;;;8.13;69.58;94999.38;4996789;28;20310;-69
2023/03/23 06:32:23;;;;;;;21.20;18.17;;;;;;;8.35;68.43;95001.72;4971583;28;20224;-66
2023/03/23 06:34:49;;;;;;;19.30;16.90;;;;;;;8.30;69.21;95009.16;4970296;28;20702;-66
2023/03/23 06:37:15;;;;;;;22.07;18.57;;;;;;;8.37;68.36;95006.84;5003548;28;20219;-69
2023/03/23 06:39:41;;;;;;;21.43;19.10;;;;;;;8.39;68.75;95008.38;4970531;28;20196;-66
2023/03/23 06:42:11;;;;;;;20.57;18.47;;;;;;;8.51;68.28;95003.81;4971087;28;20230;-67
2023/03/23 06:44:36;;;;;;;22.10;19.27;;;;;;;8.65;67.94;95005.16;4971932;28;20231;-67
2023/03/23 06:47:02;;;;;;;21.47;19.17;;;;;;;8.65;67.85;95005.16;4973867;28;20569;-72
2023/03/23 06:49:27;;;;;;;24.93;18.63;;;;;;;8.75;67.25;95011.22;4999821;28;20248;-72
2023/03/23 06:51:55;;;;;;;21.80;18.53;;;;;;;8.63;67.85;95017.59;4970596;28;20203;-70
2023/03/23 06:54:21;;;;;;;22.73;19.63;;;;;;;8.61;67.41;95019.53;4968031;28;20195;-68
2023/03/23 06:56:46;;;;;;;22.03;19.60;;;;;;;8.77;66.91;95013.72;4974218;28;20227;-68
2023/03/23 06:59:12;;;;;;;20.77;18.70;;;;;;;8.70;67.18;95018.69;4974911;28;20228;-67
2023/03/23 07:01:38;;;;;;;22.63;20.17;;;;;;;8.78;67.13;95020.59;4976173;28;20219;-67
2023/03/23 07:04:04;;;;;;;21.30;19.20;;;;;;;8.96;66.53;95015.47;4972145;28;20659;-68
2023/03/23 07:06:29;;;;;;;24.97;20.53;;;;;;;8.92;66.19;95016.72;4979537;28;20200;-64
2023/03/23 07:08:55;;;;;;;22.30;19.97;;;;;;;8.92;66.59;95021.97;4983057;28;20225;-66
2023/03/23 07:11:20;;;;;;;26.50;20.30;;;;;;;9.01;66.18;95021.13;4965870;28;20224;-67
2023/03/23 07:13:46;;;;;;;24.90;19.73;;;;;;;8.88;66.43;95020.59;4967641;28;20761;-66
2023/03/23 07:16:11;;;;;;;21.37;19.17;;;;;;;9.15;65.50;95007.53;4967112;28;20236;-64
2023/03/23 07:18:37;;;;;;;22.37;19.07;;;;;;;9.15;65.08;95015.41;4963551;28;20192;-66
2023/03/23 07:21:02;;;;;;;21.47;19.17;;;;;;;9.16;65.04;95014.44;4966201;28;20220;-66
2023/03/23 07:23:30;;;;;;;23.97;21.37;;;;;;;9.33;65.08;95017.28;4982567;28;20229;-65
2023/03/23 07:25:56;;;;;;;21.40;19.23;;;;;;;9.36;65.20;95019.63;4964291;28;20231;-65
2023/03/23 07:28:22;;;;;;;22.27;19.03;;;;;;;9.54;64.91;95025.75;4961990;28;20319;-65
2023/03/23 07:30:48;;;;;;;21.07;18.90;;;;;;;9.51;64.74;95015.53;4961939;28;20320;-65
2023/03/23 07:33:13;;;;;;;22.77;19.97;;;;;;;9.56;64.71;95017.75;4962788;28;20212;-66
2023/03/23 07:35:38;;;;;;;24.23;19.73;;;;;;;9.51;64.54;95015.53;4993663;28;20224;-66
2023/03/23 07:38:06;;;;;;;22.57;19.67;;;;;;;9.61;64.34;95021.56;4966502;28;20232;-66
2023/03/23 07:40:34;;;;;;;22.73;20.07;;;;;;;9.68;64.57;95025.28;4963263;28;20225;-67
2023/03/23 07:43:01;;;;;;;25.37;21.73;;;;;;;9.81;63.95;95019.69;4963114;28;20203;-66
2023/03/23 07:45:27;;;;;;;23.73;21.10;;;;;;;9.87;64.01;95026.97;4963050;28;20193;-66
2023/03/23 07:47:53;;;;;;;27.27;22.80;;;;;;;9.85;64.16;95020.22;4961324;28;20228;-66
2023/03/23 07:50:22;;;;;;;24.30;21.63;;;;;;;9.89;64.30;95024.19;4963198;28;20232;-65
2023/03/23 07:52:48;;;;;;;25.00;20.53;;;;;;;9.86;64.80;95025.34;4962281;28;20256;-65
2023/03/23 07:55:17;;;;;;;27.33;21.87;;;;;;;9.95;64.28;95034.13;4992305;28;20235;-65
2023/03/23 07:57:43;;;;;;;23.47;21.07;;;;;;;9.92;63.88;95031.78;4963469;28;20211;-65
2023/03/23 08:00:15;;;;;;;23.53;20.33;;;;;;;10.04;62.41;95038.47;4959039;28;20274;-64
2023/03/23 08:02:41;;;;;;;24.27;21.27;;;;;;;10.14;62.63;95036.63;4966081;28;20290;-65
2023/03/23 08:05:08;;;;;;;25.57;22.00;;;;;;;10.18;63.29;95038.94;4963783;28;20240;-65
2023/03/23 08:07:34;;;;;;;24.23;21.70;;;;;;;10.16;63.01;95028.59;4962891;28;20307;-64
2023/03/23 08:10:00;;;;;;;24.03;21.63;;;;;;;10.20;63.08;95039.63;4963558;28;20279;-64
2023/03/23 08:12:26;;;;;;;22.60;20.20;;;;;;;10.27;62.49;95040.69;4964647;28;20268;-64
2023/03/23 08:14:53;;;;;;;24.33;21.73;;;;;;;10.45;61.99;95044.19;4962879;28;20224;-67
2023/03/23 08:17:19;;;;;;;27.97;22.47;;;;;;;10.35;62.55;95035.56;4959026;28;20216;-64
2023/03/23 08:19:45;;;;;;;23.50;20.70;;;;;;;10.50;61.86;95036.66;4961145;28;20225;-64
2023/03/23 08:22:11;;;;;;;25.87;21.90;;;;;;;10.56;61.42;95043.13;4959333;28;20212;-65
2023/03/23 08:24:37;;;;;;;26.20;21.90;;;;;;;10.53;61.43;95041.63;4963299;28;20250;-66
2023/03/23 08:27:03;;;;;;;25.83;21.17;;;;;;;10.60;62.06;95045.28;4978906;28;20227;-65
2023/03/23 08:29:29;;;;;;;22.90;20.10;;;;;;;11.13;59.20;95037.50;4954663;28;20562;-64
2023/03/23 08:31:54;;;;;;;21.53;19.23;;;;;;;10.85;60.08;95036.78;4941591;28;20626;-66
2023/03/23 08:34:21;;;;;;;22.17;19.27;;;;;;;10.79;60.18;95035.59;4972147;28;20225;-66
2023/03/23 08:36:46;;;;;;;17.77;15.97;;;;;;;10.81;58.60;95036.28;4939788;28;20568;-68
2023/03/23 08:39:14;;;;;;;18.50;16.60;;;;;;;10.94;57.86;95033.25;4973328;28;20192;-68
2023/03/23 08:41:40;;;;;;;18.50;15.77;;;;;;;10.93;57.40;95027.16;4982754;28;20231;-67
2023/03/23 08:44:05;;;;;;;18.73;15.33;;;;;;;11.25;56.28;95026.56;4962671;28;20225;-67
2023/03/23 08:46:31;;;;;;;19.17;13.73;;;;;;;11.17;56.07;95036.19;4959800;28;20224;-68
2023/03/23 08:48:56;;;;;;;17.37;13.40;;;;;;;11.27;55.57;95031.63;4961347;28;20196;-68
2023/03/23 08:51:22;;;;;;;14.90;13.47;;;;;;;11.36;55.25;95022.81;4963288;28;20235;-66
2023/03/23 08:53:47;;;;;;;11.30;10.30;;;;;;;11.50;52.77;95024.03;4956763;28;20939;-65
2023/03/23 08:56:13;;;;;;;9.97;8.97;;;;;;;11.47;51.87;95022.56;4962009;28;20262;-62
2023/03/23 08:58:39;;;;;;;11.07;9.93;;;;;;;11.51;51.33;95028.31;4990541;28;20314;-63
2023/03/23 09:01:06;;;;;;;11.03;8.60;;;;;;;11.61;51.08;95029.03;4961717;28;20260;-65
2023/03/23 09:03:34;;;;;;;9.87;8.87;;;;;;;11.70;49.71;95029.88;4959865;28;20193;-64
2023/03/23 09:06:01;;;;;;;9.13;8.23;;;;;;;11.73;48.91;95034.00;4945033;28;20246;-65
2023/03/23 09:08:28;;;;;;;9.90;9.00;;;;;;;11.79;49.45;95034.22;4962062;28;20247;-64
2023/03/23 09:10:55;;;;;;;11.87;10.63;;;;;;;11.73;50.00;95026.09;4959951;28;20231;-65
2023/03/23 09:13:21;;;;;;;11.67;10.10;;;;;;;11.82;50.07;95018.09;4955336;28;20217;-64
2023/03/23 09:15:48;;;;;;;11.13;9.60;;;;;;;12.05;49.22;95028.06;4958778;28;20227;-62
2023/03/23 09:18:13;;;;;;;13.70;9.43;;;;;;;11.92;50.15;95025.88;4961125;28;20219;-65
2023/03/23 09:20:39;;;;;;;10.70;9.60;;;;;;;12.09;49.08;95022.31;4957998;28;20741;-64
2023/03/23 09:23:05;;;;;;;10.30;9.10;;;;;;;12.27;49.04;95024.84;4956920;28;20221;-64
2023/03/23 09:25:31;;;;;;;9.98;9.00;;;;;;;12.58;48.75;95024.22;4962142;28;20223;-63
2023/03/23 09:27:58;;;;;;;8.83;7.93;;;;;;;12.65;48.73;95025.22;4961996;28;20667;-63
2023/03/23 09:30:30;;;;;;;8.63;7.82;;;;;;;12.90;47.50;95028.66;4962417;28;20191;-62
2023/03/23 09:32:56;;;;;;;8.80;8.00;;;;;;;12.97;47.23;95020.94;4961472;28;20298;-62
2023/03/23 09:35:23;;;;;;;9.88;8.25;;;;;;;13.10;45.39;95015.97;4983709;28;20221;-62
2023/03/23 09:37:50;;;;;;;8.45;7.75;;;;;;;13.08;45.43;95015.28;4991398;28;20220;-62
2023/03/23 09:40:22;;;;;;;10.30;8.65;;;;;;;13.14;46.34;95013.81;4961641;28;20371;-62
2023/03/23 09:43:29;;;;;;;9.38;8.48;;;;;;;13.19;47.02;95014.13;4953782;28;20196;-62
2023/03/23 09:46:00;;;;;;;10.98;7.85;;;;;;;13.34;46.50;95003.72;4955724;28;20220;-61
2023/03/23 09:48:36;;;;;;;10.95;9.50;;;;;;;13.49;46.27;95007.31;4957773;28;20215;-63
2023/03/23 09:51:17;;;;;;;10.05;9.15;;;;;;;13.51;46.23;94999.22;4957778;28;20240;-62
2023/03/23 09:53:48;;;;;;;8.50;7.70;;;;;;;13.55;44.83;94997.88;4945530;28;20239;-60
2023/03/23 09:56:15;;;;;;;9.68;8.45;;;;;;;13.55;44.61;95009.28;4941950;28;20244;-61
2023/03/23 09:58:46;;;;;;;8.75;7.95;;;;;;;13.45;44.63;95000.72;4952843;28;20231;-61
2023/03/23 10:01:35;;;;;;;8.75;7.60;;;;;;;13.44;44.74;94996.44;4946441;28;20220;-61
2023/03/23 10:04:13;;;;;;;7.65;6.95;;;;;;;13.49;44.27;94996.75;4956598;28;20204;-61
2023/03/23 10:06:39;;;;;;;6.90;6.30;;;;;;;13.64;44.33;94995.03;4938058;28;20199;-61
2023/03/23 10:09:06;;;;;;;7.10;6.40;;;;;;;13.72;43.34;94998.66;4950832;28;20236;-61
2023/03/23 10:11:40;;;;;;;7.03;6.40;;;;;;;14.08;40.85;94997.13;4942312;28;20227;-61
2023/03/23 10:14:10;;;;;;;7.93;6.68;;;;;;;13.78;42.23;94993.50;4956592;28;20640;-63
2023/03/23 10:16:48;;;;;;;8.23;6.72;;;;;;;13.82;42.71;94996.59;4942666;28;20229;-61
2023/03/23 10:19:51;;;;;;;8.48;7.60;;;;;;;13.85;43.56;94993.66;4943399;28;20731;-61
2023/03/23 10:22:32;;;;;;;7.97;7.18;;;;;;;13.90;43.55;94994.78;4955544;28;20220;-61
2023/03/23 10:25:16;;;;;;;9.10;7.97;;;;;;;13.85;42.41;94985.72;4952465;28;20243;-61
2023/03/23 10:27:44;;;;;;;7.68;6.97;;;;;;;13.61;42.61;94984.00;4962692;28;20215;-61
2023/03/23 10:30:29;;;;;;;7.95;7.15;;;;;;;13.53;42.76;94986.69;4948672;28;20224;-63
2023/03/23 10:33:01;;;;;;;10.30;8.15;;;;;;;13.69;43.24;94981.31;4955493;28;20228;-63
2023/03/23 10:35:51;;;;;;;7.40;6.68;;;;;;;13.69;42.48;94973.41;4955651;28;20229;-63
2023/03/23 10:38:29;;;;;;;7.70;6.97;;;;;;;13.97;43.41;94981.69;4972713;28;20242;-63
2023/03/23 10:41:03;;;;;;;6.93;6.32;;;;;;;14.30;42.44;94976.19;4974457;28;20238;-63
2023/03/23 10:43:29;;;;;;;6.82;6.20;;;;;;;14.26;42.41;94972.25;4979545;28;20756;-63
2023/03/23 10:46:03;;;;;;;7.75;6.95;;;;;;;14.40;42.43;94976.78;4981387;28;20191;-63
2023/03/23 10:48:38;;;;;;;8.13;7.05;;;;;;;14.67;41.86;94979.91;4977849;28;20189;-63
2023/03/23 10:51:08;;;;;;;7.03;6.43;;;;;;;14.77;39.68;94962.78;4986594;28;20644;-63
2023/03/23 10:53:43;;;;;;;8.25;6.47;;;;;;;14.96;39.21;94969.41;4980232;28;20219;-63
2023/03/23 10:56:35;;;;;;;6.88;6.28;;;;;;;14.98;40.02;94971.88;4986350;28;20235;-64
2023/03/23 10:59:14;;;;;;;9.38;7.70;;;;;;;14.56;40.50;94976.69;4981862;28;20441;-63
2023/03/23 11:01:44;;;;;;;8.38;6.60;;;;;;;14.45;42.30;94970.97;4995175;28;20218;-63
2023/03/23 11:04:15;;;;;;;7.45;6.72;;;;;;;14.53;41.90;94979.69;4997650;28;20292;-63
2023/03/23 11:06:49;;;;;;;7.18;6.47;;;;;;;14.45;41.70;94971.78;4981337;28;20191;-64
2023/03/23 11:09:17;;;;;;;6.60;6.00;;;;;;;14.92;38.34;94976.09;4982603;28;20223;-64
2023/03/23 11:11:49;;;;;;;6.65;6.05;;;;;;;14.01;40.86;94975.06;4996619;28;20230;-62
2023/03/23 11:14:32;;;;;;;7.32;6.55;;;;;;;14.10;40.66;94968.72;4982640;28;20314;-62
2023/03/23 11:17:00;;;;;;;6.82;6.20;;;;;;;14.10;40.75;94958.13;4955847;28;20381;-64
2023/03/23 11:19:36;;;;;;;7.10;6.40;;;;;;;13.77;42.17;94965.44;4968443;28;20220;-63
2023/03/23 11:22:04;;;;;;;8.77;6.78;;;;;;;13.71;41.64;94957.34;4963142;28;20266;-63
2023/03/23 11:24:34;;;;;;;9.93;7.97;;;;;;;14.08;41.33;94954.84;4978323;28;20276;-64
2023/03/23 11:27:02;;;;;;;7.45;6.63;;;;;;;14.58;42.53;94947.41;4967785;28;21415;-64
2023/03/23 11:29:29;;;;;;;7.85;7.05;;;;;;;14.38;40.76;94947.06;4970469;28;20243;-63
2023/03/23 11:32:00;;;;;;;6.95;6.25;;;;;;;14.10;40.91;94936.16;4995770;28;20266;-63
2023/03/23 11:34:35;;;;;;;7.05;6.35;;;;;;;15.03;39.72;94931.63;4998653;28;20223;-64
2023/03/23 11:37:05;;;;;;;6.57;6.05;;;;;;;14.72;40.02;94938.69;4996470;28;20314;-64